Time;durP1;ratioP1;P1;durP2;ratioP2;P2;SDS_P1;SDS_P2;PMS_P1;PMS_P2;Temp;Humidity;BMP_temperature;BMP_pressure;BME280_temperature;BME280_humidity;BME280_pressure;Samples;Min_cycle;Max_cycle;Signal;HPM_P1;HPM_P2
2023/12/01 00:01:10;;;;;;;33.50;22.50;;;;;;;-1.66;93.16;95182.88;108668;1273;22594;-79
2023/12/01 00:03:49;;;;;;;42.30;28.20;;;;;;;-1.67;93.20;95193.05;108689;1273;22544;-79
2023/12/01 00:06:17;;;;;;;40.90;27.60;;;;;;;-1.69;93.05;95190.97;108701;1273;22533;-79
2023/12/01 00:08:46;;;;;;;47.20;30.80;;;;;;;-1.71;93.27;95185.32;108648;1272;22547;-80
2023/12/01 00:11:17;;;;;;;41.40;27.90;;;;;;;-1.74;93.07;95193.02;108675;1266;22948;-79
2023/12/01 00:13:46;;;;;;;38.70;26.40;;;;;;;-1.77;92.82;95205.70;108637;1273;24216;-79
2023/12/01 00:16:15;;;;;;;45.50;29.20;;;;;;;-1.79;92.90;95213.42;108722;1266;22515;-79
2023/12/01 00:18:43;;;;;;;34.20;21.40;;;;;;;-1.82;92.87;95198.30;108710;1272;22640;-79
2023/12/01 00:21:12;;;;;;;46.30;30.10;;;;;;;-1.82;93.13;95197.54;108657;1273;22639;-79
2023/12/01 00:23:40;;;;;;;43.50;27.40;;;;;;;-1.82;93.09;95199.62;108686;1273;22525;-79
2023/12/01 00:26:09;;;;;;;44.20;28.10;;;;;;;-1.81;93.31;95208.55;108698;1266;22533;-79
2023/12/01 00:28:38;;;;;;;43.80;26.70;;;;;;;-1.81;93.43;95213.34;108665;1272;22580;-79
2023/12/01 00:31:07;;;;;;;41.80;28.80;;;;;;;-1.82;93.33;95208.85;108667;1270;22564;-79
2023/12/01 00:33:35;;;;;;;40.80;25.40;;;;;;;-1.81;93.35;95214.63;108694;1273;23315;-79
2023/12/01 00:36:05;;;;;;;44.30;27.80;;;;;;;-1.84;93.30;95212.79;108707;1273;22554;-79
2023/12/01 00:38:35;;;;;;;40.50;26.90;;;;;;;-1.84;93.57;95200.69;108678;1273;22521;-79
2023/12/01 00:41:02;;;;;;;;;;;;;;;-1.83;93.43;95200.67;108655;1269;24203;-79
2023/12/01 00:43:31;;;;;;;39.70;25.20;;;;;;;-1.84;93.56;95201.81;108642;1269;22533;-79
2023/12/01 00:46:00;;;;;;;34.00;20.20;;;;;;;-1.84;93.48;95202.20;108682;1266;24209;-79
2023/12/01 00:48:29;;;;;;;38.20;22.60;;;;;;;-1.85;93.40;95202.75;108659;1273;22524;-79
2023/12/01 00:50:58;;;;;;;46.80;30.20;;;;;;;-1.87;93.39;95198.48;108710;1266;24278;-80
2023/12/01 00:53:27;;;;;;;43.60;28.30;;;;;;;-1.88;93.56;95202.14;108652;1273;22978;-79
2023/12/01 00:55:56;;;;;;;46.50;29.60;;;;;;;-1.88;93.75;95218.40;108651;1273;22561;-79
2023/12/01 00:58:24;;;;;;;46.90;30.00;;;;;;;-1.89;93.61;95220.98;108671;1273;22511;-79
2023/12/01 01:00:53;;;;;;;47.50;29.60;;;;;;;-1.90;93.78;95220.39;108692;1273;22527;-79
2023/12/01 01:03:22;;;;;;;50.40;31.80;;;;;;;-1.89;93.87;95225.70;108648;1267;22534;-79
2023/12/01 01:05:51;;;;;;;47.90;26.50;;;;;;;-1.89;93.98;95224.73;108681;1273;22599;-79
2023/12/01 01:08:20;;;;;;;40.90;25.20;;;;;;;-1.89;93.76;95223.22;108651;1273;24254;-79
2023/12/01 01:10:49;;;;;;;28.80;18.00;;;;;;;-1.89;93.99;95221.75;108715;1266;22528;-79
2023/12/01 01:13:17;;;;;;;26.80;17.20;;;;;;;-1.90;94.22;95219.66;108650;1273;23336;-80
2023/12/01 01:15:46;;;;;;;39.70;23.70;;;;;;;-1.90;94.27;95208.59;108733;1273;23045;-79
2023/12/01 01:18:15;;;;;;;39.80;23.00;;;;;;;-1.89;94.46;95195.94;108711;1272;25332;-79
2023/12/01 01:20:43;;;;;;;33.50;19.80;;;;;;;-1.89;94.47;95200.58;108713;1273;22521;-79
2023/12/01 01:23:11;;;;;;;32.50;19.70;;;;;;;-1.88;94.67;95202.25;108670;1273;25307;-79
2023/12/01 01:25:40;;;;;;;19.60;13.60;;;;;;;-1.85;95.03;95198.82;108750;1273;22560;-79
2023/12/01 01:28:08;;;;;;;42.30;24.60;;;;;;;-1.82;94.91;95200.95;108662;1267;24836;-79
2023/12/01 01:30:39;;;;;;;30.20;18.30;;;;;;;-1.81;94.85;95211.20;108668;1267;22525;-79
2023/12/01 01:33:08;;;;;;;33.50;19.90;;;;;;;-1.79;94.98;95198.39;108647;1273;22535;-79
2023/12/01 01:35:36;;;;;;;31.60;19.30;;;;;;;-1.77;95.13;95201.14;108699;1269;22535;-80
2023/12/01 01:38:04;;;;;;;30.60;18.30;;;;;;;-1.74;94.94;95195.45;108676;1272;22534;-80
2023/12/01 01:40:36;;;;;;;27.00;18.70;;;;;;;-1.73;95.33;95192.98;108733;1273;22544;-79
2023/12/01 01:43:04;;;;;;;24.90;16.20;;;;;;;-1.73;95.46;95192.77;108662;1273;22553;-79
2023/12/01 01:45:32;;;;;;;35.60;22.80;;;;;;;-1.71;95.41;95188.33;108693;1273;22602;-79
2023/12/01 01:48:00;;;;;;;39.40;24.20;;;;;;;-1.70;95.44;95183.87;108665;1267;25574;-80
2023/12/01 01:50:28;;;;;;;27.50;16.70;;;;;;;-1.71;95.28;95177.38;108694;1272;22531;-79
2023/12/01 01:52:57;;;;;;;27.10;16.10;;;;;;;-1.71;95.35;95185.32;108662;1273;22540;-79
2023/12/01 01:55:25;;;;;;;30.10;21.10;;;;;;;-1.67;95.35;95188.00;108731;1273;22538;-80
2023/12/01 01:57:56;;;;;;;30.70;19.50;;;;;;;-1.63;95.55;95185.92;108650;1273;23481;-79
2023/12/01 02:00:27;;;;;;;28.80;19.40;;;;;;;-1.62;95.33;95184.16;108709;1273;22541;-79
2023/12/01 02:02:55;;;;;;;26.30;17.80;;;;;;;-1.62;95.51;95171.33;108636;1273;22523;-79
2023/12/01 02:05:23;;;;;;;27.50;17.30;;;;;;;-1.60;95.36;95168.76;108691;1269;22538;-79
2023/12/01 02:07:52;;;;;;;28.30;17.80;;;;;;;-1.58;95.40;95171.80;108630;1266;22600;-79
2023/12/01 02:10:20;;;;;;;26.70;16.20;;;;;;;-1.56;95.32;95171.10;108662;1272;22553;-80
2023/12/01 02:12:51;;;;;;;24.40;17.70;;;;;;;-1.53;95.69;95162.90;108672;1273;22587;-80
2023/12/01 02:15:19;;;;;;;27.50;18.30;;;;;;;-1.53;95.61;95150.52;108680;1273;22656;-79
2023/12/01 02:17:48;;;;;;;22.80;13.80;;;;;;;-1.53;95.70;95152.73;108649;1273;24224;-79
2023/12/01 02:20:16;;;;;;;23.00;17.50;;;;;;;-1.52;95.35;95159.17;108738;1273;25278;-79
2023/12/01 02:22:49;;;;;;;24.50;14.50;;;;;;;-1.51;95.61;95155.91;108675;1273;22476;-79
2023/12/01 02:25:17;;;;;;;21.90;16.10;;;;;;;-1.48;95.26;95160.67;108648;1269;22531;-79
2023/12/01 02:27:45;;;;;;;21.90;15.70;;;;;;;-1.46;95.24;95155.25;108635;1266;22524;-79
2023/12/01 02:30:14;;;;;;;26.00;17.00;;;;;;;-1.44;95.41;95160.05;108716;1270;22521;-79
2023/12/01 02:32:43;;;;;;;25.60;17.70;;;;;;;-1.45;95.38;95173.10;108687;1273;23728;-79
2023/12/01 02:35:12;;;;;;;26.60;18.40;;;;;;;-1.46;95.23;95181.09;108702;1273;22551;-79
2023/12/01 02:37:40;;;;;;;31.00;18.50;;;;;;;-1.47;95.27;95178.41;108686;1266;22548;-79
2023/12/01 02:40:15;;;;;;;27.90;17.90;;;;;;;-1.51;95.19;95185.23;108699;1273;22552;-79
2023/12/01 02:42:48;;;;;;;28.40;18.70;;;;;;;-1.53;94.99;95185.05;108687;1273;22530;-79
2023/12/01 02:45:18;;;;;;;30.20;20.00;;;;;;;-1.54;95.18;95185.65;108754;1266;23787;-79
2023/12/01 02:47:47;;;;;;;;;;;;;;;-1.58;95.07;95198.46;108677;1273;22509;-79
2023/12/01 02:50:16;;;;;;;34.30;22.00;;;;;;;-1.59;95.03;95212.59;108682;1269;22665;-79
2023/12/01 02:52:44;;;;;;;19.70;13.90;;;;;;;-1.60;94.99;95210.02;108675;1273;24569;-79
2023/12/01 02:55:13;;;;;;;28.90;19.00;;;;;;;-1.60;95.34;95203.41;108697;1273;22639;-79
2023/12/01 02:57:43;;;;;;;29.20;19.50;;;;;;;-1.61;95.13;95195.41;108642;1273;25351;-79
2023/12/01 03:00:13;;;;;;;27.20;17.70;;;;;;;-1.61;95.29;95196.18;108659;1273;22514;-79
2023/12/01 03:02:42;;;;;;;27.60;18.50;;;;;;;-1.62;95.20;95204.23;108714;1271;22528;-79
2023/12/01 03:05:13;;;;;;;27.60;18.30;;;;;;;-1.63;95.32;95206.45;108687;1273;22538;-79
2023/12/01 03:07:42;;;;;;;27.50;18.30;;;;;;;-1.64;95.12;95212.20;108642;1266;24250;-79
2023/12/01 03:10:11;;;;;;;25.20;17.10;;;;;;;-1.66;95.23;95208.90;108536;1273;208984;-79
2023/12/01 03:12:39;;;;;;;;;;;;;;;-1.68;95.01;95214.54;108729;1269;22527;-79
2023/12/01 03:15:12;;;;;;;21.10;13.70;;;;;;;-1.69;95.32;95222.10;108667;1266;22548;-79
2023/12/01 03:17:41;;;;;;;23.10;14.50;;;;;;;-1.70;95.31;95206.69;108688;1273;25211;-79
2023/12/01 03:20:14;;;;;;;22.80;15.80;;;;;;;-1.71;95.42;95212.86;108714;1273;24365;-79
2023/12/01 03:22:44;;;;;;;27.60;18.10;;;;;;;-1.73;95.42;95214.11;108727;1273;24359;-79
2023/12/01 03:25:13;;;;;;;29.80;20.80;;;;;;;-1.76;95.33;95226.49;108703;1273;22549;-79
2023/12/01 03:27:43;;;;;;;32.40;21.40;;;;;;;-1.77;95.39;95229.08;108688;1273;24546;-79
2023/12/01 03:30:14;;;;;;;37.00;24.30;;;;;;;-1.80;95.36;95237.63;108732;1269;22547;-79
2023/12/01 03:32:46;;;;;;;35.50;23.20;;;;;;;-1.85;95.60;95236.56;108716;1273;22539;-79
2023/12/01 03:35:16;;;;;;;40.70;26.70;;;;;;;-1.88;95.39;95234.04;108720;1272;22539;-79
2023/12/01 03:37:45;;;;;;;47.70;30.60;;;;;;;-1.94;95.41;95235.97;108683;1273;22539;-79
2023/12/01 03:40:14;;;;;;;48.80;30.10;;;;;;;-1.97;95.40;95233.11;108677;1273;22644;-79
2023/12/01 03:42:43;;;;;;;;;;;;;;;-1.96;95.95;95234.33;108726;1273;22505;-79
2023/12/01 03:45:12;;;;;;;38.80;24.50;;;;;;;-1.95;95.94;95239.70;108710;1273;22532;-79
2023/12/01 03:47:47;;;;;;;41.50;27.40;;;;;;;-1.93;96.18;95230.43;108685;1266;22535;-79
2023/12/01 03:50:18;;;;;;;47.50;29.60;;;;;;;-1.92;96.14;95229.25;108684;1273;22535;-79
2023/12/01 03:52:47;;;;;;;46.20;31.40;;;;;;;-1.91;96.53;95224.23;108696;1269;26680;-79
2023/12/01 03:55:16;;;;;;;49.40;31.50;;;;;;;-1.90;96.40;95220.77;108703;1273;24211;-79
2023/12/01 03:57:45;;;;;;;52.40;32.60;;;;;;;-1.90;96.57;95214.17;108655;1268;22517;-79
2023/12/01 04:00:14;;;;;;;;;;;;;;;-1.91;96.60;95213.16;108745;1270;22523;-79
2023/12/01 04:02:46;;;;;;;47.10;29.80;;;;;;;-1.91;96.65;95214.31;108667;1273;22644;-79
2023/12/01 04:05:17;;;;;;;46.90;29.20;;;;;;;-1.91;96.77;95214.09;108749;1270;25255;-79
2023/12/01 04:07:50;;;;;;;50.80;33.20;;;;;;;-1.97;96.28;95226.36;108689;1273;22892;-78
2023/12/01 04:10:18;;;;;;;54.10;34.40;;;;;;;-2.01;96.39;95223.00;108757;1273;22525;-79
2023/12/01 04:12:47;;;;;;;58.60;35.40;;;;;;;-2.02;96.64;95218.41;108652;1273;24201;-79
2023/12/01 04:15:16;;;;;;;51.30;33.90;;;;;;;-2.02;96.76;95222.73;108698;1262;22651;-79
2023/12/01 04:17:44;;;;;;;;;;;;;;;-2.02;96.74;95233.27;108657;1273;24299;-79
2023/12/01 04:20:25;;;;;;;49.60;33.40;;;;;;;-2.03;96.94;95234.87;108691;1269;22544;-79
2023/12/01 04:22:54;;;;;;;48.30;31.60;;;;;;;-2.03;97.13;95237.15;108704;1265;22522;-80
2023/12/01 04:25:23;;;;;;;45.00;30.90;;;;;;;-2.02;97.13;95227.30;108702;1273;22675;-79
2023/12/01 04:27:52;;;;;;;52.60;32.80;;;;;;;-2.00;97.23;95222.34;108638;1269;22511;-79
2023/12/01 04:30:20;;;;;;;;;;;;;;;-1.97;97.17;95230.20;108708;1269;22594;-80
2023/12/01 04:32:52;;;;;;;44.30;30.50;;;;;;;-1.95;97.30;95226.65;108663;1273;22520;-80
2023/12/01 04:35:21;;;;;;;44.60;30.40;;;;;;;-1.94;97.31;95228.55;108676;1271;25255;-80
2023/12/01 04:37:49;;;;;;;49.30;32.30;;;;;;;-1.94;97.27;95229.85;108691;1273;24479;-80
2023/12/01 04:40:18;;;;;;;51.60;32.50;;;;;;;-1.92;97.14;95221.66;108703;1272;22474;-80
2023/12/01 04:42:47;;;;;;;47.40;32.40;;;;;;;-1.92;97.29;95223.13;108664;1273;22517;-80
2023/12/01 04:45:15;;;;;;;;;;;;;;;-1.90;97.37;95225.75;108693;1273;22525;-80
2023/12/01 04:47:46;;;;;;;47.70;29.60;;;;;;;-1.87;97.17;95216.59;108599;1273;22931;-79
2023/12/01 04:50:16;;;;;;;50.60;31.80;;;;;;;-1.86;97.38;95219.92;108684;1270;22563;-80
2023/12/01 04:52:44;;;;;;;;;;;;;;;-1.85;97.23;95219.54;108729;1269;22505;-79
2023/12/01 04:55:14;;;;;;;51.60;31.70;;;;;;;-1.84;97.44;95209.67;108687;1272;22517;-79
2023/12/01 04:57:44;;;;;;;50.30;32.20;;;;;;;-1.82;97.19;95229.52;108647;1272;22522;-79
2023/12/01 05:00:22;;;;;;;49.40;31.50;;;;;;;-1.82;97.43;95243.83;108753;1266;22521;-80
2023/12/01 05:02:53;;;;;;;47.50;31.20;;;;;;;-1.82;97.14;95251.61;108695;1273;22570;-79
2023/12/01 05:05:23;;;;;;;48.40;31.00;;;;;;;-1.85;97.15;95250.23;108671;1273;22547;-80
2023/12/01 05:07:56;;;;;;;52.30;33.80;;;;;;;-1.85;97.37;95237.91;108653;1273;23264;-79
2023/12/01 05:10:26;;;;;;;52.70;34.60;;;;;;;-1.83;97.17;95248.73;108699;1273;22514;-80
2023/12/01 05:12:56;;;;;;;48.70;32.60;;;;;;;-1.81;97.53;95245.50;108650;1270;22534;-80
2023/12/01 05:15:24;;;;;;;;;;;;;;;-1.80;97.30;95242.02;108741;1273;22517;-80
2023/12/01 05:17:54;;;;;;;43.80;28.60;;;;;;;-1.79;97.31;95253.83;108721;1266;22520;-79
2023/12/01 05:20:25;;;;;;;47.60;32.30;;;;;;;-1.82;97.40;95258.55;108729;1272;24174;-79
2023/12/01 05:22:55;;;;;;;49.80;33.20;;;;;;;-1.85;97.18;95254.96;108688;1272;22623;-79
2023/12/01 05:25:25;;;;;;;48.60;31.60;;;;;;;-1.86;97.55;95241.23;108709;1273;22630;-79
2023/12/01 05:27:55;;;;;;;46.60;32.10;;;;;;;-1.83;97.39;95234.59;108657;1269;22520;-80
2023/12/01 05:30:25;;;;;;;47.20;32.00;;;;;;;-1.81;97.40;95243.00;108713;1273;25405;-79
2023/12/01 05:32:55;;;;;;;46.00;31.30;;;;;;;-1.80;97.69;95251.07;108656;1266;25277;-80
2023/12/01 05:35:24;;;;;;;48.00;32.50;;;;;;;-1.78;97.33;95264.23;108698;1273;25344;-80
2023/12/01 05:37:54;;;;;;;48.20;30.60;;;;;;;-1.78;97.56;95266.89;108715;1273;23413;-79
2023/12/01 05:40:25;;;;;;;48.60;32.30;;;;;;;-1.78;97.57;95267.71;108679;1270;25297;-79
2023/12/01 05:42:55;;;;;;;53.50;33.60;;;;;;;-1.77;97.70;95256.66;108672;1265;22530;-80
2023/12/01 05:45:24;;;;;;;48.60;32.20;;;;;;;-1.76;97.53;95266.25;108647;1273;22541;-80
2023/12/01 05:47:53;;;;;;;51.70;33.60;;;;;;;-1.74;97.64;95263.26;108710;1266;22519;-80
2023/12/01 05:50:23;;;;;;;49.50;33.40;;;;;;;-1.73;97.69;95266.23;108658;1273;25236;-80
2023/12/01 05:52:53;;;;;;;46.60;30.90;;;;;;;-1.75;97.39;95270.77;108684;1273;22532;-80
2023/12/01 05:55:23;;;;;;;53.80;35.10;;;;;;;-1.79;97.53;95271.60;108700;1272;24216;-80
2023/12/01 05:57:52;;;;;;;54.50;37.80;;;;;;;-1.83;97.39;95275.08;108685;1273;22533;-79
2023/12/01 06:00:26;;;;;;;53.60;35.80;;;;;;;-1.84;97.46;95287.08;108678;1273;24271;-80
2023/12/01 06:02:55;;;;;;;52.30;35.90;;;;;;;-1.86;97.81;95281.80;108660;1273;23715;-79
2023/12/01 06:05:24;;;;;;;50.80;34.90;;;;;;;-1.85;97.83;95277.71;108702;1273;25488;-79
2023/12/01 06:07:58;;;;;;;54.90;38.20;;;;;;;-1.84;97.82;95280.61;108686;1273;22524;-80
2023/12/01 06:10:28;;;;;;;51.90;33.20;;;;;;;-1.81;97.74;95277.13;108728;1266;22511;-80
2023/12/01 06:12:57;;;;;;;51.80;33.60;;;;;;;-1.82;97.93;95268.44;108707;1273;22532;-80
2023/12/01 06:15:29;;;;;;;;;;;;;;;-1.84;97.76;95273.52;108708;1269;22524;-80
2023/12/01 06:17:58;;;;;;;50.60;34.00;;;;;;;-1.84;98.09;95268.74;108722;1273;22615;-79
2023/12/01 06:20:29;;;;;;;52.10;34.30;;;;;;;-1.85;97.91;95257.20;108709;1272;22538;-80
2023/12/01 06:22:59;;;;;;;50.90;35.10;;;;;;;-1.83;98.06;95255.70;108725;1273;25297;-80
2023/12/01 06:25:31;;;;;;;57.30;37.80;;;;;;;-1.83;98.03;95253.98;108708;1267;22537;-80
2023/12/01 06:28:02;;;;;;;55.70;37.30;;;;;;;-1.81;97.94;95261.39;108690;1273;22523;-79
2023/12/01 06:30:33;;;;;;;57.20;38.40;;;;;;;-1.81;98.10;95263.84;108704;1272;22543;-80
2023/12/01 06:33:02;;;;;;;57.40;38.50;;;;;;;-1.81;97.88;95270.02;108708;1273;22988;-80
2023/12/01 06:35:30;;;;;;;55.50;36.50;;;;;;;-1.84;98.00;95283.88;108644;1273;22571;-80
2023/12/01 06:37:59;;;;;;;52.70;33.70;;;;;;;-1.84;97.85;95286.36;108656;1273;23535;-79
2023/12/01 06:40:27;;;;;;;51.30;34.20;;;;;;;-1.83;98.15;95275.48;108678;1273;22514;-79
2023/12/01 06:42:56;;;;;;;59.40;38.10;;;;;;;-1.81;98.24;95284.35;108698;1273;25464;-79
2023/12/01 06:45:26;;;;;;;64.70;37.30;;;;;;;-1.82;98.02;95286.09;108694;1269;22644;-80
2023/12/01 06:47:55;;;;;;;68.00;42.60;;;;;;;-1.84;97.87;95283.09;108662;1273;26461;-80
2023/12/01 06:50:23;;;;;;;64.60;41.20;;;;;;;-1.84;98.05;95284.43;108673;1273;22524;-80
2023/12/01 06:52:53;;;;;;;62.90;37.90;;;;;;;-1.84;97.93;95290.45;108663;1265;22535;-80
2023/12/01 06:55:22;;;;;;;66.70;40.70;;;;;;;-1.83;97.99;95297.50;108724;1273;23494;-80
2023/12/01 06:57:51;;;;;;;67.30;40.80;;;;;;;-1.82;98.14;95296.85;108701;1266;22564;-80
2023/12/01 07:00:29;;;;;;;65.40;39.70;;;;;;;-1.81;98.22;95300.20;108721;1273;22566;-80
2023/12/01 07:02:59;;;;;;;62.00;37.10;;;;;;;-1.77;98.44;95295.10;108666;1266;22844;-80
2023/12/01 07:05:28;;;;;;;52.10;34.60;;;;;;;-1.74;98.49;95294.55;108717;1273;24234;-80
2023/12/01 07:07:58;;;;;;;49.30;32.40;;;;;;;-1.70;98.51;95291.23;108692;1270;22950;-79
2023/12/01 07:10:32;;;;;;;42.80;27.10;;;;;;;-1.65;98.50;95291.17;108697;1273;22544;-80
2023/12/01 07:13:00;;;;;;;45.70;29.70;;;;;;;-1.59;98.89;95283.62;108674;1266;22583;-80
2023/12/01 07:15:29;;;;;;;50.10;32.60;;;;;;;-1.54;98.70;95279.40;108687;1269;22758;-80
2023/12/01 07:17:58;;;;;;;56.80;35.90;;;;;;;-1.49;98.97;95283.91;108671;1272;22476;-80
2023/12/01 07:20:27;;;;;;;59.30;37.10;;;;;;;-1.41;98.80;95296.73;108705;1273;22520;-80
2023/12/01 07:22:55;;;;;;;56.40;36.30;;;;;;;-1.35;98.85;95301.19;108661;1273;22527;-80
2023/12/01 07:25:23;;;;;;;61.20;39.10;;;;;;;-1.29;98.90;95305.60;108659;1273;22524;-79
2023/12/01 07:27:53;;;;;;;66.40;41.80;;;;;;;-1.25;98.61;95296.36;108693;1273;22587;-79
2023/12/01 07:30:21;;;;;;;61.30;40.10;;;;;;;-1.22;98.72;95288.86;108729;1272;25526;-80
2023/12/01 07:32:51;;;;;;;62.00;40.50;;;;;;;-1.21;98.85;95300.73;108672;1270;23025;-80
2023/12/01 07:35:19;;;;;;;60.00;39.20;;;;;;;-1.17;98.67;95299.49;108698;1273;22524;-80
2023/12/01 07:37:51;;;;;;;62.50;40.20;;;;;;;-1.13;98.37;95290.51;108704;1273;22540;-80
2023/12/01 07:40:21;;;;;;;54.80;37.00;;;;;;;-1.13;98.35;95282.80;108683;1273;22520;-80
2023/12/01 07:42:50;;;;;;;60.80;39.70;;;;;;;-1.17;97.99;95273.80;108682;1273;22589;-80
2023/12/01 07:45:19;;;;;;;54.50;37.40;;;;;;;-1.18;98.04;95286.69;108663;1273;25328;-80
2023/12/01 07:47:48;;;;;;;53.90;37.70;;;;;;;-1.15;98.17;95302.06;108703;1273;24189;-79
2023/12/01 07:50:16;;;;;;;;;;;;;;;-1.07;98.33;95311.35;108727;1269;22501;-80
2023/12/01 07:52:44;;;;;;;49.80;34.70;;;;;;;-0.99;98.84;95320.16;108684;1267;22537;-80
2023/12/01 07:55:13;;;;;;;56.50;38.80;;;;;;;-0.92;98.84;95325.42;108679;1273;22525;-80
2023/12/01 07:57:42;;;;;;;59.40;40.20;;;;;;;-0.85;98.63;95321.77;108687;1273;22515;-79
2023/12/01 08:00:14;;;;;;;59.80;40.80;;;;;;;-0.79;98.62;95314.95;108680;1273;22526;-80
2023/12/01 08:02:44;;;;;;;57.90;39.80;;;;;;;-0.69;98.91;95319.98;108665;1270;22518;-79
2023/12/01 08:05:14;;;;;;;63.20;39.90;;;;;;;-0.59;99.10;95326.92;108683;1273;25242;-80
2023/12/01 08:07:43;;;;;;;57.70;37.30;;;;;;;-0.51;98.81;95320.59;108689;1272;22520;-79
2023/12/01 08:10:14;;;;;;;;;;;;;;;-0.48;98.70;95304.75;108712;1273;22564;-80
2023/12/01 08:12:44;;;;;;;52.30;37.30;;;;;;;-0.49;98.43;95306.20;108760;1273;22543;-80
2023/12/01 08:15:12;;;;;;;53.10;35.50;;;;;;;-0.48;98.48;95318.55;108682;1272;22575;-80
2023/12/01 08:17:43;;;;;;;51.80;35.20;;;;;;;-0.48;98.36;95327.98;108653;1273;22527;-79
2023/12/01 08:20:12;;;;;;;49.60;35.30;;;;;;;-0.49;97.97;95326.55;108698;1273;22541;-79
2023/12/01 08:22:43;;;;;;;;;;;;;;;-0.47;98.21;95329.65;108678;1272;22623;-79
2023/12/01 08:25:12;;;;;;;49.50;34.70;;;;;;;-0.40;98.57;95323.73;108767;1265;22531;-79
2023/12/01 08:27:41;;;;;;;50.40;35.70;;;;;;;-0.33;98.64;95318.74;108754;1273;22524;-79
2023/12/01 08:30:10;;;;;;;47.30;33.80;;;;;;;-0.29;98.41;95316.64;108720;1269;21745;-80
2023/12/01 08:32:39;;;;;;;46.80;33.70;;;;;;;-0.26;98.45;95319.58;108722;1272;22535;-79
2023/12/01 08:35:08;;;;;;;48.30;32.30;;;;;;;-0.20;98.64;95311.52;108684;1269;22993;-79
2023/12/01 08:37:37;;;;;;;46.10;31.80;;;;;;;-0.14;98.44;95304.15;108701;1266;22552;-79
2023/12/01 08:40:11;;;;;;;46.30;32.00;;;;;;;-0.05;98.52;95313.63;108694;1273;25379;-80
2023/12/01 08:42:42;;;;;;;44.60;30.50;;;;;;;0.04;98.44;95317.59;108691;1273;23425;-80
2023/12/01 08:45:12;;;;;;;41.50;27.70;;;;;;;0.12;98.24;95308.08;108737;1273;24225;-80
2023/12/01 08:47:41;;;;;;;38.00;26.90;;;;;;;0.13;97.94;95313.61;108659;1273;25491;-79
2023/12/01 08:50:11;;;;;;;41.90;28.60;;;;;;;0.10;97.54;95315.66;108729;1266;25230;-80
2023/12/01 08:52:39;;;;;;;40.30;28.00;;;;;;;0.06;97.19;95316.46;108717;1273;23077;-79
2023/12/01 08:55:10;;;;;;;30.20;21.70;;;;;;;0.08;97.50;95316.37;108690;1273;24239;-80
2023/12/01 08:57:38;;;;;;;42.30;29.10;;;;;;;0.14;97.33;95316.71;108621;1270;22877;-79
2023/12/01 09:00:09;;;;;;;41.60;29.30;;;;;;;0.18;97.46;95322.91;108683;1273;22853;-80
2023/12/01 09:02:38;;;;;;;43.60;30.20;;;;;;;0.24;97.47;95321.29;108660;1273;22536;-80
2023/12/01 09:05:09;;;;;;;43.50;30.70;;;;;;;0.29;97.44;95331.15;108657;1273;22543;-79
2023/12/01 09:07:39;;;;;;;45.40;30.70;;;;;;;0.36;97.31;95327.63;108669;1272;24677;-80
2023/12/01 09:10:09;;;;;;;40.30;29.20;;;;;;;0.39;97.22;95331.25;108706;1273;22543;-80
2023/12/01 09:12:36;;;;;;;;;;;;;;;0.51;97.35;95334.15;108679;1266;22501;-80
2023/12/01 09:15:07;;;;;;;34.70;25.10;;;;;;;0.63;97.60;95326.59;108685;1273;22637;-80
2023/12/01 09:17:36;;;;;;;35.40;23.40;;;;;;;0.72;97.27;95327.09;108758;1273;22937;-79
2023/12/01 09:20:08;;;;;;;32.20;23.40;;;;;;;0.77;97.28;95327.77;108648;1273;22560;-80
2023/12/01 09:22:37;;;;;;;32.50;23.10;;;;;;;0.75;97.03;95324.45;108734;1272;22601;-80
2023/12/01 09:25:08;;;;;;;35.10;24.80;;;;;;;0.76;96.98;95319.66;108701;1273;22562;-79
2023/12/01 09:27:37;;;;;;;36.00;25.60;;;;;;;0.77;96.67;95325.41;108714;1272;22558;-79
2023/12/01 09:30:15;;;;;;;38.40;26.30;;;;;;;0.80;96.58;95327.42;108716;1273;22517;-79
2023/12/01 09:32:44;;;;;;;41.10;28.80;;;;;;;0.88;96.42;95329.95;108680;1270;21771;-80
2023/12/01 09:35:12;;;;;;;39.90;27.40;;;;;;;0.95;96.50;95322.69;108701;1273;22549;-80
2023/12/01 09:37:43;;;;;;;41.40;26.70;;;;;;;1.04;96.63;95324.17;108671;1270;22678;-80
2023/12/01 09:40:13;;;;;;;36.80;26.10;;;;;;;1.17;96.66;95325.42;108663;1273;25376;-80
2023/12/01 09:42:44;;;;;;;38.10;26.20;;;;;;;1.32;96.81;95318.31;108679;1273;24278;-80
2023/12/01 09:45:20;;;;;;;36.20;25.20;;;;;;;1.42;96.37;95315.88;108730;1273;22524;-80
2023/12/01 09:47:52;;;;;;;36.10;26.10;;;;;;;1.47;96.03;95314.81;108693;1273;23298;-80
2023/12/01 09:50:22;;;;;;;37.80;26.00;;;;;;;1.40;95.66;95320.34;108709;1269;22572;-80
2023/12/01 09:52:52;;;;;;;42.60;31.00;;;;;;;1.34;95.51;95319.33;108722;1266;23304;-80
2023/12/01 09:55:20;;;;;;;41.70;29.20;;;;;;;1.30;95.42;95318.98;108639;1272;25372;-80
2023/12/01 09:57:48;;;;;;;43.70;31.50;;;;;;;1.30;95.61;95322.38;108662;1273;22569;-80
2023/12/01 10:00:17;;;;;;;35.00;24.50;;;;;;;1.28;95.29;95321.23;108703;1274;22524;-80
2023/12/01 10:02:46;;;;;;;43.10;30.00;;;;;;;1.19;95.07;95316.35;108656;1273;24135;-80
2023/12/01 10:05:18;;;;;;;42.90;30.00;;;;;;;1.13;95.10;95313.42;108710;1273;22535;-80
2023/12/01 10:07:48;;;;;;;49.40;31.40;;;;;;;1.04;95.00;95311.03;108758;1265;25992;-80
2023/12/01 10:10:21;;;;;;;41.60;28.30;;;;;;;1.00;95.40;95330.42;108682;1273;22539;-80
2023/12/01 10:13:04;;;;;;;35.50;24.40;;;;;;;1.05;95.34;95339.79;108644;1273;22528;-80
2023/12/01 10:15:34;;;;;;;36.80;25.90;;;;;;;1.08;95.36;95343.88;108778;1272;22596;-80
2023/12/01 10:18:16;;;;;;;35.20;25.20;;;;;;;1.11;95.31;95342.80;108704;1273;24215;-80
2023/12/01 10:21:02;;;;;;;38.80;24.00;;;;;;;1.09;95.11;95345.77;108688;1273;25456;-80
2023/12/01 10:23:33;;;;;;;30.40;19.10;;;;;;;1.08;95.22;95340.54;108656;1267;22524;-80
2023/12/01 10:26:03;;;;;;;28.40;19.10;;;;;;;1.07;95.09;95328.01;108683;1273;22528;-80
2023/12/01 10:28:39;;;;;;;23.90;15.60;;;;;;;1.05;94.93;95316.00;108731;1271;25365;-80
2023/12/01 10:31:09;;;;;;;37.40;24.20;;;;;;;1.00;95.05;95303.06;108732;1273;25530;-80
2023/12/01 10:33:37;;;;;;;36.50;24.90;;;;;;;0.96;95.09;95309.91;108733;1273;22544;-80
2023/12/01 10:36:11;;;;;;;29.80;20.80;;;;;;;1.00;95.03;95314.19;108666;1273;26588;-80
2023/12/01 10:38:40;;;;;;;30.50;20.40;;;;;;;0.99;94.91;95318.82;108644;1273;25591;-80
2023/12/01 10:41:09;;;;;;;33.70;22.80;;;;;;;0.95;94.80;95313.66;108719;1273;22632;-80
2023/12/01 10:43:38;;;;;;;36.60;24.00;;;;;;;0.91;94.84;95314.26;108724;1273;25451;-80
2023/12/01 10:46:11;;;;;;;30.30;20.40;;;;;;;0.91;94.80;95305.59;108700;1266;22537;-80
2023/12/01 10:48:39;;;;;;;33.30;21.90;;;;;;;0.88;94.81;95309.70;108707;1270;22532;-80
2023/12/01 10:51:10;;;;;;;34.00;23.10;;;;;;;0.82;94.75;95305.77;108671;1269;22538;-80
2023/12/01 10:53:40;;;;;;;33.60;21.90;;;;;;;0.77;94.95;95304.34;108734;1273;22556;-80
2023/12/01 10:56:16;;;;;;;34.20;23.30;;;;;;;0.78;94.95;95301.11;108695;1271;22528;-80
2023/12/01 10:58:52;;;;;;;40.40;25.50;;;;;;;0.83;95.01;95311.94;108618;1273;23115;-80
2023/12/01 11:01:22;;;;;;;38.10;24.10;;;;;;;0.87;95.21;95317.68;108651;1271;22541;-80
2023/12/01 11:03:52;;;;;;;34.90;24.40;;;;;;;0.93;95.26;95323.93;108687;1274;22566;-80
2023/12/01 11:06:30;;;;;;;36.80;26.00;;;;;;;1.03;95.32;95318.11;108696;1273;25389;-80
2023/12/01 11:09:10;;;;;;;38.30;25.60;;;;;;;1.12;95.35;95316.77;108653;1270;22547;-80
2023/12/01 11:11:52;;;;;;;44.40;28.10;;;;;;;1.10;95.05;95321.98;108664;1273;22524;-80
2023/12/01 11:14:25;;;;;;;44.70;28.50;;;;;;;1.08;95.00;95328.59;108674;1273;22535;-80
2023/12/01 11:16:54;;;;;;;41.90;28.30;;;;;;;1.12;95.13;95331.02;108701;1273;25447;-80
2023/12/01 11:19:24;;;;;;;45.00;31.90;;;;;;;1.22;95.21;95321.43;108700;1273;22464;-80
2023/12/01 11:21:57;;;;;;;46.50;32.40;;;;;;;1.27;94.99;95318.45;108674;1273;23617;-80
2023/12/01 11:24:27;;;;;;;54.90;36.50;;;;;;;1.22;95.04;95317.11;108695;1273;22594;-80
2023/12/01 11:27:00;;;;;;;63.80;41.50;;;;;;;1.04;94.58;95318.13;108723;1273;24253;-80